Login to view products. 
Saturday, June 24, 2017 (20:35 UTC)
Fujairah International Airport
ICAO Code: OMFJ
IATA Code: FJR
  • METAR OMFJ 242000Z 28015KT 8000 NSC 40/13 Q0997 RMK A2945=
  • TAF OMFJ 241700Z 2418/2524 29012KT 7000 NSC PROB30 TEMPO 2418/2504 29015G25KT 5000 BLDU BECMG 2504/2506 06008KT BECMG 2510/2512 29018KT=